Morris Plains, NJ (07950)

1:30 PM EDT on May 03, 2015 (GMT -0400)
Morris Plains | | Change Station
CLOSE
Current Station
Personal Weather Station
Location: Morris Plains, NJ
Elevation: 423 ft
Nearby Weather Stations

Elev 423 ft 40.83 °N, 74.49 °W | Updated 13 minutes ago

Clear
Clear
76.2 °F
Feels Like 77 °F
N
3.0
Wind Variable Wind from West
Gusts 9.0 mph

Today
High -- | Low -- °F
--% Chance of Precip.
Yesterday
High -- | Low -- °F
Precip. -- in
5:54 AM 7:56 PM
Full, 100% visible
Pressure 30.07 in
Visibility 15.0 miles
Clouds Few 20000 ft
Heat Index 77 °F
Dew Point 38 °F
Humidity 25%
Rainfall 0.00 in
Snow Depth Not available.
UV 10 out of 12
Pollen 10.80 out of 12
Air Quality Not available.
Flu Activity Local Activity
METAR KMMU 031645Z 30004KT 15SM FEW200 24/03 A3007

More Conditions Fewer Conditions

Pressure 30.07 in
Visibility 15.0 miles
Clouds Few 20000 ft
Heat Index 77 °F
Dew Point 38 °F
Humidity 25%
Rainfall 0.00 in
Snow Depth Not available.
UV 10 out of 12
Pollen 10.80 out of 12
Air Quality Not available.
Flu Activity Local Activity
METAR KMMU 031645Z 30004KT 15SM FEW200 24/03 A3007

More Conditions Fewer Conditions

Nepal has a long way to go to dig out and rebuild from a devastating earthquake. We have teamed up with several charities and organizations to make contributing to the relief effort as easy as possible.
How you can help: Portlight Strategies | Red Cross

10-Day Weather Forecast

Almanac

Astronomy

May. 03, 2015 Rise Set
Actual Time
Civil Twilight
Nautical Twilight
Astronomical Twilight
Moon
Length of Visible Light
Length of Day
Tomorrow will be .
, % of the Moon is Illuminated

Today's Extremes

State Highs State Lows

Community

WunderPhotos

Upload Photos

1,818,294 photos uploaded!

WunderBlogs® & News

Nearby

Air Quality

  Air Quality AQ Index Pollutant
Not available.

Snow Depth

Station Depth Elevation

Earthquake Activity

City Distance Mag. Time & Date
Minimum magnitude displayed is 2.5.

Coastal Water Temperatures

Place Temperature

Stations

Nearby Weather Stations

Station Location Temp. Windchill Dew Point Humidity Wind Precip. Elev Updated Type